Home > Products > Valid Products > MTR

000
SAUS46 KMTR 252157
MTRMHS
METAR KMHS 252156Z AUTO 30004KT 10SM CLR 18/05 A3018 RMK AO2 SLP232
T01830050





000
SAUS46 KMTR 252057
MTRMHS
METAR KMHS 252056Z AUTO VRB05KT 10SM CLR 17/04 A3022 RMK AO2 SLP247
T01670044 58024





000
SAUS46 KMTR 251956
MTRMHS
METAR KMHS 251956Z AUTO 28005KT 10SM CLR 15/04 A3025 RMK AO2 SLP259
T01500039





000
SAUS46 KMTR 251857
MTRMHS
METAR KMHS 251856Z AUTO 30004KT 10SM CLR 14/03 A3028 RMK AO2 SLP272
T01440033





000
SAUS46 KMTR 251757
MTRMHS
METAR KMHS 251756Z AUTO VRB03KT 10SM CLR 12/04 A3030 RMK AO2 SLP279
T01220039 10122 20006 58002





000
SAUS46 KMTR 251657
MTRMHS
METAR KMHS 251656Z AUTO 00000KT 9SM CLR 05/02 A3030 RMK AO2 SLP289
T00500022





000
SAUS46 KMTR 251556
MTRMHS
METAR KMHS 251556Z AUTO 05003KT 10SM CLR 01/M01 A3031 RMK AO2 SLP293
T00111006





000
SAUS46 KMTR 251457
MTRMHS
METAR KMHS 251456Z AUTO 00000KT 10SM CLR 01/M01 A3031 RMK AO2 SLP292
T00111006 56003





000
SAUS46 KMTR 251357
MTRMHS
METAR KMHS 251356Z AUTO 00000KT 9SM CLR 01/M01 A3031 RMK AO2 SLP289
T00111006





000
SAUS46 KMTR 251257
MTRMHS
METAR KMHS 251256Z AUTO 00000KT 10SM CLR 01/M01 A3031 RMK AO2 SLP287
T00111006





000
SAUS46 KMTR 251157
MTRMHS
METAR KMHS 251156Z AUTO VRB03KT 9SM CLR 02/M01 A3032 RMK AO2 SLP284
T00171006 10033 20011 58005





000
SAUS46 KMTR 251058
MTRMHS
METAR KMHS 251056Z AUTO 00000KT 10SM CLR 02/M01 A3034 RMK AO2 SLP291
T00171011





000
SAUS46 KMTR 250958
MTRMHS
METAR KMHS 250956Z AUTO 00000KT 8SM CLR 02/M01 A3034 RMK AO2 SLP293
T00171006





000
SAUS46 KMTR 250857
MTRMHS
METAR KMHS 250856Z AUTO 00000KT 5SM BR CLR 02/00 A3034 RMK AO2
SLP290 T00220000 58005





000
SAUS46 KMTR 250758
MTRMHS
METAR KMHS 250756Z AUTO 00000KT 6SM BR CLR 02/00 A3035 RMK AO2
SLP297 T00220000 401560000





000
SAUS46 KMTR 250658
MTRMHS
METAR KMHS 250656Z AUTO 00000KT 5SM BR CLR 02/00 A3035 RMK AO2
SLP299 T00220000





000
SAUS46 KMTR 250457
MTRMHS
METAR KMHS 250456Z AUTO 06003KT 7SM CLR 04/01 A3035 RMK AO2 SLP307
T00390011





000
SAUS46 KMTR 250358
MTRMHS
METAR KMHS 250356Z AUTO 06003KT 4SM HZ CLR 05/02 A3034 RMK AO2
SLP307 T00500017





000
SAUS46 KMTR 250158
MTRMHS
METAR KMHS 250156Z AUTO 06003KT 8SM CLR 09/03 A3033 RMK AO2 SLP297
T00890028





000
SAUS46 KMTR 250158
MTRMHS
METAR KMHS 250156Z AUTO 06003KT 8SM CLR 09/03 A3033 RMK AO2 SLP297
T00890028





000
SAUS46 KMTR 250057
MTRMHS
METAR KMHS 250056Z AUTO VRB05KT 10SM CLR 12/03 A3032 RMK AO2 SLP292
T01170028





000
SAUS46 KMTR 242258
MTRMHS
METAR KMHS 242256Z AUTO VRB04KT 10SM CLR 14/02 A3034 RMK AO2 SLP293
T01440022





000
SAUS46 KMTR 241957
MTRMHS
METAR KMHS 241956Z AUTO 32007KT 10SM CLR 13/02 A3040 RMK AO2 SLP316
T01280017





000
SAUS46 KMTR 241858
MTRMHS
METAR KMHS 241856Z AUTO VRB04KT 10SM CLR 12/02 A3043 RMK AO2 SLP326
T01170017





000
SAUS46 KMTR 241757
MTRMHS
METAR KMHS 241756Z AUTO 31003KT 10SM CLR 10/02 A3043 RMK AO2 SLP328
T01000022 10100 20000 50003





000
SAUS46 KMTR 241657
MTRMHS
METAR KMHS 241656Z AUTO 00000KT 10SM CLR 03/01 A3044 RMK AO2 SLP339
T00330006





000
SAUS46 KMTR 241558
MTRMHS
METAR KMHS 241556Z AUTO 00000KT 10SM CLR 01/M01 A3043 RMK AO2 SLP338
T00061011





000
SAUS46 KMTR 241458
MTRMHS
METAR KMHS 241456Z AUTO 00000KT 10SM CLR 00/M02 A3042 RMK AO2 SLP332
T00001017 55003





000
SAUS46 KMTR 241058
MTRMHS
METAR KMHS 241056Z AUTO 00000KT 10SM CLR 01/M01 A3044 RMK AO2 SLP330
T00111011





000
SAUS46 KMTR 240857
MTRMHS
METAR KMHS 240856Z AUTO 06003KT 10SM CLR 02/M01 A3045 RMK AO2 SLP334
T00171011 50000





000
SAUS46 KMTR 240657
MTRMHS
METAR KMHS 240656Z AUTO VRB03KT 8SM CLR 02/M01 A3045 RMK AO2 SLP335
T00221006





000
SAUS46 KMTR 240557
MTRMHS
METAR KMHS 240556Z AUTO 00000KT 10SM CLR 03/00 A3045 RMK AO2 SLP338
T00280000 10122 20028 50000





000
SAUS46 KMTR 240457
MTRMHS
METAR KMHS 240456Z AUTO 06003KT 10SM CLR 03/00 A3046 RMK AO2 SLP346
T00330000





000
SAUS46 KMTR 240357
MTRMHS
METAR KMHS 240356Z AUTO 00000KT 9SM CLR 04/00 A3046 RMK AO2 SLP348
T00440000





000
SAUS46 KMTR 240157
MTRMHS
METAR KMHS 240156Z AUTO 00000KT 10SM CLR 08/00 A3045 RMK AO2 SLP339
T00780000





000
SAUS46 KMTR 240057
MTRMHS
METAR KMHS 240056Z AUTO 32003KT 10SM CLR 09/M01 A3043 RMK AO2 SLP328
T00941006





000
SAUS46 KMTR 232158
MTRMHS
METAR KMHS 232156Z AUTO 30007KT 270V350 10SM FEW110 13/00 A3045 RMK
AO2 SLP332 T01280000





000
SAUS46 KMTR 232158
MTRMHS
METAR KMHS 232156Z AUTO 30007KT 270V350 10SM FEW110 13/00 A3045 RMK
AO2 SLP332 T01280000





000
SAUS46 KMTR 232057
MTRMHS
METAR KMHS 232056Z AUTO 31008KT 280V340 10SM CLR 12/M01 A3047 RMK
AO2 SLP343 T01221006 58011





000
SAUS46 KMTR 231957
MTRMHS
METAR KMHS 231956Z AUTO VRB05KT 10SM CLR 11/00 A3049 RMK AO2 SLP350
T01110000





000
SAUS46 KMTR 231857
MTRMHS
METAR KMHS 231856Z AUTO VRB03KT 10SM CLR 09/00 A3050 RMK AO2 SLP357
T00940000





000
SAUS46 KMTR 231758
MTRMHS
METAR KMHS 231756Z AUTO VRB06KT 10SM CLR 08/00 A3051 RMK AO2 SLP358
T00780000 10078 21006 53007





000
SAUS46 KMTR 231657
MTRMHS
METAR KMHS 231656Z AUTO 00000KT 10SM CLR 04/M01 A3048 RMK AO2 SLP356
T00391006





000
SAUS46 KMTR 231657
MTRMHS
METAR KMHS 231656Z AUTO 00000KT 10SM CLR 04/M01 A3048 RMK AO2 SLP356
T00391006





000
SAUS46 KMTR 231557
MTRMHS
METAR KMHS 231556Z AUTO 06003KT 6SM BR CLR 00/M02 A3048 RMK AO2
SLP360 T00001022





000
SAUS46 KMTR 231357
MTRMHS
METAR KMHS 231356Z AUTO VRB03KT 10SM CLR 01/M02 A3046 RMK AO2 SLP349
T00061022





000
SAUS46 KMTR 231257
MTRMHS
METAR KMHS 231256Z AUTO VRB03KT 10SM BKN120 04/M01 A3046 RMK AO2
SLP337 T00391011





000
SAUS46 KMTR 231158
MTRMHS
METAR KMHS 231156Z AUTO 00000KT 10SM CLR 00/M02 A3045 RMK AO2 SLP339
T00001022 10028 21006 53001





000
SAUS46 KMTR 230957
MTRMHS
METAR KMHS 230956Z AUTO 35003KT 9SM CLR 01/M02 A3045 RMK AO2 SLP337
T00111017





000
SAUS46 KMTR 230957
MTRMHS
METAR KMHS 230956Z AUTO 35003KT 9SM CLR 01/M02 A3045 RMK AO2 SLP337
T00111017





000
SAUS46 KMTR 230857
MTRMHS
METAR KMHS 230856Z AUTO 00000KT 6SM BR CLR 00/M02 A3045 RMK AO2
SLP338 T00001022 53004





000
SAUS46 KMTR 230757
MTRMHS
METAR KMHS 230756Z AUTO 04004KT 8SM CLR M01/M03 A3042 RMK AO2 SLP329
T10061033 401111006





000
SAUS46 KMTR 230757
MTRMHS
METAR KMHS 230756Z AUTO 04004KT 8SM CLR M01/M03 A3042 RMK AO2 SLP329
T10061033 401111006





000
SAUS46 KMTR 230657
MTRMHS
METAR KMHS 230656Z AUTO 02003KT 9SM CLR 00/M03 A3044 RMK AO2 SLP336
T00001028





000
SAUS46 KMTR 230557
MTRMHS
METAR KMHS 230556Z AUTO 00000KT 7SM CLR 02/M02 A3044 RMK AO2 SLP334
T00221022 10094 20006 53017





000
SAUS46 KMTR 230457
MTRMHS
METAR KMHS 230456Z AUTO 06004KT 5SM HZ CLR 01/M02 A3041 RMK AO2
SLP333 T00111022





000
SAUS46 KMTR 230357
MTRMHS
METAR KMHS 230356Z AUTO 08003KT 5SM HZ CLR 02/M02 A3039 RMK AO2
SLP326 T00221017





000
SAUS46 KMTR 230258
MTRMHS
METAR KMHS 230256Z AUTO 00000KT 10SM CLR 04/M01 A3038 RMK AO2 SLP321
T00391011 51013





000
SAUS46 KMTR 230157
MTRMHS
METAR KMHS 230156Z AUTO 00000KT 10SM CLR 05/M01 A3037 RMK AO2 SLP314
T00501011





000
SAUS46 KMTR 222257
MTRMHS
METAR KMHS 222256Z AUTO 30006KT 10SM BKN070 OVC100 09/00 A3034 RMK
AO2 SLP299 T00890000





    US Dept of Commerce
    National Oceanic and Atmospheric Administration
    National Weather Service
    1325 East West Highway
    Silver Spring, MD 20910
    Page Author: NWS Internet Services Team
Disclaimer
Information Quality
Credits
Glossary
Privacy Policy
Freedom of Information Act (FOIA)
About Us
Career Opportunities